Orkney Springs, Virginia
Current Conditions -  °F | °C
As of 1:55 AM on Sunday 26 Oct 2014 (Local Time) from K8W2 Reporting Station
Clear Clear  
Wind Chill: 66°   Ceiling: Unl
Heat Index: 66°   Visibility: 10mi
Dew Point: 39°   Wind: 10mph
Humidity: 36%   Direction: 300°WNW
Pressure: 29.75"   Gusts: 24mph
Location:  38.8°N, 78.81°W
Report Text: K8W2 260555Z AUTO 30009G21KT 260V330 10SM CLR 19/04 A2975 RMK AO1 T01910038 10191 20107
Loading
Personal Weather Stations






























Interactive Weather Map
Tropical Storm Tracking
New forecast layout! Learn more

10-Day Weather Forecast

Advertisements
Track Severe Weather on mobile